Time;durP1;ratioP1;P1;durP2;ratioP2;P2;SDS_P1;SDS_P2;PMS_P1;PMS_P2;Temp;Humidity;BMP_temperature;BMP_pressure;BME280_temperature;BME280_humidity;BME280_pressure;Samples;Min_cycle;Max_cycle;Signal;HPM_P1;HPM_P2
2024/04/21 00:00:31;;;;;;;5.40;3.50;;;;;;;7.71;65.37;98824.67;232473;203;137119;-52
2024/04/21 00:05:54;;;;;;;5.40;3.80;;;;;;;7.65;65.96;98828.17;232546;204;137232;-52
2024/04/21 00:10:57;;;;;;;5.30;4.20;;;;;;;7.60;66.20;98834.83;232373;203;153805;-52
2024/04/21 00:16:00;;;;;;;6.60;4.30;;;;;;;7.54;66.37;98836.69;232446;207;137783;-52
2024/04/21 00:21:04;;;;;;;6.30;4.30;;;;;;;7.49;66.77;98836.58;232524;203;138151;-52
2024/04/21 00:26:07;;;;;;;5.50;3.90;;;;;;;7.53;66.87;98841.52;232472;203;152954;-51
2024/04/21 00:31:10;;;;;;;5.90;4.10;;;;;;;7.59;66.77;98840.52;232553;206;137380;-55
2024/04/21 00:36:13;;;;;;;4.60;3.90;;;;;;;7.63;66.51;98844.88;232511;203;138093;-51
2024/04/21 00:41:16;;;;;;;5.50;3.60;;;;;;;7.65;66.30;98848.45;232386;206;153224;-52
2024/04/21 00:46:19;;;;;;;6.20;4.30;;;;;;;7.65;66.24;98851.67;232363;207;138132;-52
2024/04/21 00:51:23;;;;;;;5.00;3.50;;;;;;;7.69;66.02;98857.27;232489;203;138146;-51
2024/04/21 00:56:27;;;;;;;3.90;2.90;;;;;;;7.63;65.87;98854.95;232360;204;153826;-52
2024/04/21 01:01:30;;;;;;;3.60;2.80;;;;;;;7.55;65.81;98859.58;232568;206;137228;-52
2024/04/21 01:06:33;;;;;;;3.00;2.70;;;;;;;7.50;65.80;98858.11;232491;203;141405;-51
2024/04/21 01:11:46;;;;;;;4.00;2.50;;;;;;;7.47;65.75;98865.48;232393;204;153462;-52
2024/04/21 01:16:48;;;;;;;3.20;2.50;;;;;;;7.44;65.68;98865.10;232390;206;137754;-52
2024/04/21 01:21:51;;;;;;;3.40;2.50;;;;;;;7.41;65.66;98864.75;232439;203;136986;-53
2024/04/21 01:26:54;;;;;;;6.60;2.90;;;;;;;7.40;65.33;98868.36;232473;206;153685;-51
2024/04/21 01:31:57;;;;;;;3.40;2.60;;;;;;;7.34;65.47;98875.34;232428;199;137873;-52
2024/04/21 01:37:00;;;;;;;3.10;2.50;;;;;;;7.31;65.48;98880.42;232584;206;137649;-52
2024/04/21 01:42:04;;;;;;;3.50;2.90;;;;;;;7.23;65.56;98879.96;232474;203;155078;-52
2024/04/21 01:47:07;;;;;;;3.50;2.80;;;;;;;7.20;65.84;98879.23;232432;203;142048;-52
2024/04/21 01:52:10;;;;;;;2.80;2.30;;;;;;;7.17;65.97;98879.06;232427;206;138901;-52
2024/04/21 01:57:13;;;;;;;4.20;2.30;;;;;;;7.23;65.41;98877.67;232497;203;154465;-50
2024/04/21 02:02:15;;;;;;;3.10;2.50;;;;;;;7.33;65.11;98878.52;232465;206;137606;-52
2024/04/21 02:07:18;;;;;;;3.40;2.60;;;;;;;7.31;65.17;98880.40;232600;204;137933;-53
2024/04/21 02:12:21;;;;;;;3.10;2.40;;;;;;;7.24;65.09;98881.86;232440;203;153623;-52
2024/04/21 02:17:24;;;;;;;2.90;2.20;;;;;;;7.16;64.96;98882.98;232396;203;137576;-51
2024/04/21 02:22:28;;;;;;;3.20;2.40;;;;;;;7.07;65.56;98884.12;232451;200;137291;-54
2024/04/21 02:27:30;;;;;;;2.40;2.20;;;;;;;7.01;65.89;98891.67;232386;203;153729;-54
2024/04/21 02:32:33;;;;;;;2.40;2.10;;;;;;;6.98;65.95;98893.02;232496;203;143071;-53
2024/04/21 02:37:36;;;;;;;2.30;2.10;;;;;;;6.87;66.06;98896.56;232479;203;248697;-53
2024/04/21 02:42:39;;;;;;;2.40;2.20;;;;;;;6.79;66.68;98896.29;232603;203;152912;-53
2024/04/21 02:47:42;;;;;;;2.80;2.30;;;;;;;6.74;66.33;98894.04;232457;203;136965;-53
2024/04/21 02:52:45;;;;;;;2.50;2.30;;;;;;;6.61;66.46;98893.78;232439;206;138956;-53
2024/04/21 02:57:48;;;;;;;2.50;2.30;;;;;;;6.56;66.80;98895.27;232455;203;153205;-51
2024/04/21 03:02:52;;;;;;;3.10;2.70;;;;;;;6.55;67.19;98900.08;232488;206;138377;-50
2024/04/21 03:07:54;;;;;;;2.80;2.50;;;;;;;6.50;67.11;98900.81;232495;202;137669;-53
2024/04/21 03:12:58;;;;;;;2.80;2.40;;;;;;;6.46;67.15;98901.94;232596;206;153742;-52
2024/04/21 03:18:01;;;;;;;3.40;2.40;;;;;;;6.47;67.49;98902.58;232490;203;137860;-52
2024/04/21 03:23:04;;;;;;;2.50;2.10;;;;;;;6.45;67.32;98904.60;232418;203;140801;-53
2024/04/21 03:28:07;;;;;;;3.50;2.90;;;;;;;6.51;67.47;98901.48;232430;203;153484;-52
2024/04/21 03:33:10;;;;;;;3.30;3.00;;;;;;;6.55;67.51;98904.66;232366;206;137919;-52
2024/04/21 03:38:13;;;;;;;5.70;3.70;;;;;;;6.59;67.67;98904.66;232444;206;137926;-52
2024/04/21 03:43:16;;;;;;;4.20;3.40;;;;;;;6.61;67.31;98905.44;232555;203;153258;-53
2024/04/21 03:48:18;;;;;;;3.90;3.50;;;;;;;6.58;67.34;98907.66;232429;203;137565;-53
2024/04/21 03:53:22;;;;;;;5.30;3.70;;;;;;;6.60;66.93;98908.65;232503;202;141751;-52
2024/04/21 03:58:25;;;;;;;4.30;3.70;;;;;;;6.57;67.20;98911.62;232380;206;153288;-51
2024/04/21 04:03:28;;;;;;;4.50;3.50;;;;;;;6.50;67.07;98910.35;232482;203;137117;-52
2024/04/21 04:08:31;;;;;;;4.80;3.90;;;;;;;6.49;67.55;98911.13;232418;206;138199;-53
2024/04/21 04:13:34;;;;;;;4.10;3.40;;;;;;;6.47;67.21;98910.00;232380;202;153349;-52
2024/04/21 04:18:36;;;;;;;4.70;3.50;;;;;;;6.45;67.30;98912.71;232520;203;137219;-53
2024/04/21 04:23:39;;;;;;;3.90;3.50;;;;;;;6.44;67.09;98919.11;232446;206;137491;-52
2024/04/21 04:28:42;;;;;;;4.30;3.70;;;;;;;6.46;66.78;98923.27;232416;203;152974;-52
2024/04/21 04:33:45;;;;;;;5.00;3.90;;;;;;;6.42;66.68;98927.66;232422;204;137855;-51
2024/04/21 04:38:48;;;;;;;4.80;4.10;;;;;;;6.40;66.92;98931.80;232334;201;138267;-52
2024/04/21 04:43:51;;;;;;;3.70;3.20;;;;;;;6.38;67.13;98933.98;232474;203;153182;-52
2024/04/21 04:48:54;;;;;;;4.60;3.40;;;;;;;6.40;66.93;98936.56;232612;203;138614;-52
2024/04/21 04:53:57;;;;;;;4.30;3.90;;;;;;;6.44;66.88;98939.91;232414;204;137541;-52
2024/04/21 04:59:00;;;;;;;4.10;3.50;;;;;;;6.47;66.65;98944.85;232478;206;248963;-50
2024/04/21 05:04:06;;;;;;;4.20;3.80;;;;;;;6.52;66.17;98947.44;232534;202;138222;-49
2024/04/21 05:09:09;;;;;;;4.30;3.90;;;;;;;6.50;66.02;98950.88;232404;200;138023;-52
2024/04/21 05:14:12;;;;;;;4.60;3.90;;;;;;;6.44;66.16;98956.99;232474;204;153029;-52
2024/04/21 05:19:16;;;;;;;5.60;4.30;;;;;;;6.43;66.17;98958.96;232536;204;137235;-52
2024/04/21 05:24:19;;;;;;;4.90;4.30;;;;;;;6.40;66.24;98958.94;232413;204;137538;-52
2024/04/21 05:29:21;;;;;;;4.60;4.20;;;;;;;6.39;66.52;98958.96;232315;204;153196;-53
2024/04/21 05:34:24;;;;;;;3.90;3.50;;;;;;;6.31;66.49;98964.27;232354;203;139141;-51
2024/04/21 05:39:27;;;;;;;3.50;3.20;;;;;;;6.21;66.47;98964.75;232387;207;137498;-52
2024/04/21 05:44:31;;;;;;;5.20;4.40;;;;;;;6.15;66.58;98967.81;232511;203;153887;-52
2024/04/21 05:49:34;;;;;;;4.10;3.30;;;;;;;6.09;66.46;98971.63;232483;206;141176;-51
2024/04/21 05:54:37;;;;;;;4.90;3.70;;;;;;;6.02;66.48;98972.64;232564;203;137241;-51
2024/04/21 05:59:40;;;;;;;4.50;3.70;;;;;;;5.95;66.82;98977.69;232405;204;153207;-51
2024/04/21 06:04:43;;;;;;;3.30;2.80;;;;;;;5.86;66.90;98977.18;232395;203;138765;-50
2024/04/21 06:09:46;;;;;;;4.00;3.20;;;;;;;5.86;67.24;98985.79;232377;204;137325;-52
2024/04/21 06:14:49;;;;;;;3.90;3.30;;;;;;;5.95;67.09;98985.60;232453;203;153481;-51
2024/04/21 06:19:52;;;;;;;4.00;3.30;;;;;;;6.04;67.38;98985.94;232337;206;137701;-52
2024/04/21 06:24:54;;;;;;;3.80;3.30;;;;;;;6.10;67.31;98989.53;232548;203;137523;-53
2024/04/21 06:29:57;;;;;;;3.80;3.20;;;;;;;6.13;67.21;98988.38;232342;206;153840;-53
2024/04/21 06:35:01;;;;;;;4.40;3.60;;;;;;;6.17;67.35;98992.05;232320;204;138065;-49
2024/04/21 06:40:04;;;;;;;3.70;3.30;;;;;;;6.25;67.33;98988.19;232399;199;139991;-51
2024/04/21 06:45:07;;;;;;;3.80;3.30;;;;;;;6.27;67.24;98982.24;232428;203;153237;-50
2024/04/21 06:50:10;;;;;;;4.70;3.80;;;;;;;6.29;67.23;98985.15;232418;204;137608;-51
2024/04/21 06:55:13;;;;;;;5.20;3.90;;;;;;;6.34;67.06;98988.45;232638;206;137231;-50
2024/04/21 07:00:16;;;;;;;4.60;4.00;;;;;;;6.36;67.28;98998.06;232409;203;153314;-48
2024/04/21 07:05:19;;;;;;;4.30;3.80;;;;;;;6.35;67.31;99000.05;232353;206;138195;-51
2024/04/21 07:10:22;;;;;;;5.20;4.00;;;;;;;6.36;68.08;98998.58;232477;200;138036;-49
2024/04/21 07:15:25;;;;;;;4.50;3.40;;;;;;;6.46;68.10;98997.27;232404;206;153352;-48
2024/04/21 07:20:28;;;;;;;4.30;3.70;;;;;;;6.51;68.21;98998.44;232383;203;137513;-49
2024/04/21 07:25:31;;;;;;;4.10;3.70;;;;;;;6.58;68.08;99003.73;232603;203;137326;-50
2024/04/21 07:30:34;;;;;;;4.10;3.70;;;;;;;6.78;67.38;99003.14;232496;203;153183;-50
2024/04/21 07:35:37;;;;;;;6.50;4.00;;;;;;;6.93;66.55;99001.58;232461;203;138072;-50
2024/04/21 07:40:40;;;;;;;5.40;3.90;;;;;;;7.00;66.32;99001.05;232468;203;137849;-50
2024/04/21 07:45:45;;;;;;;5.40;4.50;;;;;;;6.97;66.37;99003.34;232493;202;153028;-49
2024/04/21 07:50:48;;;;;;;5.30;4.20;;;;;;;6.96;66.30;99006.02;232310;206;138446;-49
2024/04/21 07:55:51;;;;;;;4.20;3.80;;;;;;;6.95;66.01;99007.48;232453;203;137467;-50
2024/04/21 08:00:54;;;;;;;4.30;3.80;;;;;;;6.98;66.32;99009.63;232632;206;153065;-49
2024/04/21 08:05:58;;;;;;;4.90;3.70;;;;;;;6.98;66.76;99008.19;232342;206;137348;-50
2024/04/21 08:11:02;;;;;;;4.30;3.80;;;;;;;6.97;67.53;99012.83;232399;206;137722;-48
2024/04/21 08:16:07;;;;;;;4.30;3.70;;;;;;;6.98;67.45;99016.85;232457;199;152861;-50
2024/04/21 08:21:10;;;;;;;4.10;3.70;;;;;;;7.02;67.59;99022.99;232469;202;137522;-50
2024/04/21 08:26:13;;;;;;;5.20;3.70;;;;;;;7.07;66.77;99028.91;232425;203;140132;-50
2024/04/21 08:31:16;;;;;;;4.30;3.50;;;;;;;7.08;66.45;99030.83;232512;203;153994;-51
2024/04/21 08:36:19;;;;;;;3.30;2.80;;;;;;;7.15;66.56;99032.80;232357;206;138765;-48
2024/04/21 08:41:23;;;;;;;4.80;3.80;;;;;;;7.23;66.83;99037.50;232444;203;137008;-51
2024/04/21 08:46:26;;;;;;;4.30;2.90;;;;;;;7.30;67.36;99041.94;232417;203;153645;-51
2024/04/21 08:51:33;;;;;;;3.20;2.60;;;;;;;7.39;67.42;99046.66;232379;206;140916;-52
2024/04/21 08:56:43;;;;;;;3.10;2.70;;;;;;;7.49;66.66;99045.09;232504;206;138144;-48
2024/04/21 09:01:46;;;;;;;3.90;3.00;;;;;;;7.58;66.11;99042.17;232467;203;153227;-52
2024/04/21 09:06:50;;;;;;;3.20;2.90;;;;;;;7.69;65.91;99047.25;232565;206;138758;-51
2024/04/21 09:11:54;;;;;;;3.40;3.00;;;;;;;7.74;64.96;99045.45;232399;203;137612;-51
2024/04/21 09:16:57;;;;;;;3.00;2.70;;;;;;;7.76;65.32;99042.83;232415;206;154639;-50
2024/04/21 09:22:02;;;;;;;3.40;2.70;;;;;;;7.81;65.12;99035.33;232285;206;138022;-49
2024/04/21 09:27:05;;;;;;;4.80;2.90;;;;;;;7.81;65.33;99038.18;232420;206;138037;-50
2024/04/21 09:32:09;;;;;;;4.80;4.30;;;;;;;7.83;64.99;99035.26;232472;203;153313;-49
2024/04/21 09:37:17;;;;;;;4.00;3.30;;;;;;;7.84;64.92;99037.86;232488;203;137573;-50
2024/04/21 09:42:21;;;;;;;3.10;2.70;;;;;;;7.81;64.71;99043.98;232232;206;138485;-51
2024/04/21 09:47:25;;;;;;;5.10;2.80;;;;;;;7.77;64.73;99042.62;232340;204;153239;-50
2024/04/21 09:52:28;;;;;;;3.60;3.20;;;;;;;7.78;64.85;99040.07;232450;206;138498;-50
2024/04/21 09:57:36;;;;;;;6.00;3.30;;;;;;;7.80;64.42;99041.22;232409;206;138171;-50
2024/04/21 10:02:46;;;;;;;3.80;3.00;;;;;;;7.79;64.50;99036.48;232321;206;152994;-49
2024/04/21 10:07:51;;;;;;;2.90;2.50;;;;;;;7.72;63.79;99036.00;232274;204;137954;-48
2024/04/21 10:12:55;;;;;;;3.60;3.10;;;;;;;7.64;64.04;99035.68;232565;206;137197;-49
2024/04/21 10:17:59;;;;;;;4.00;3.00;;;;;;;7.57;64.09;99037.79;232463;202;153109;-50
2024/04/21 10:23:06;;;;;;;5.00;2.80;;;;;;;7.52;64.17;99038.77;232377;203;137577;-49
2024/04/21 10:28:11;;;;;;;4.90;3.50;;;;;;;7.46;64.47;99040.08;232429;206;137634;-51
2024/04/21 10:33:15;;;;;;;307.60;227.60;;;;;;;7.47;65.84;99038.66;232518;203;153314;-56
2024/04/21 10:38:18;;;;;;;6.60;5.50;;;;;;;7.72;65.86;99037.02;232487;202;137366;-51
2024/04/21 10:43:24;;;;;;;3.60;2.80;;;;;;;7.66;64.70;99039.14;232634;203;138320;-51
2024/04/21 10:48:27;;;;;;;4.60;3.50;;;;;;;7.67;65.23;99039.95;232486;206;153137;-51
2024/04/21 10:53:31;;;;;;;3.80;3.40;;;;;;;7.76;65.26;99047.61;232448;206;138220;-52
2024/04/21 10:58:33;;;;;;;5.10;3.00;;;;;;;7.74;64.92;99051.79;232444;203;138703;-52
2024/04/21 11:03:36;;;;;;;4.30;3.20;;;;;;;7.74;64.78;99050.36;232358;203;154311;-51
2024/04/21 11:08:41;;;;;;;3.00;2.70;;;;;;;7.75;65.68;99048.36;232497;203;137452;-54
2024/04/21 11:13:44;;;;;;;335.50;263.50;;;;;;;7.73;66.32;99048.45;232192;203;137426;-52
2024/04/21 11:18:47;;;;;;;10.50;6.50;;;;;;;7.82;66.49;99049.95;232479;202;153672;-50
2024/04/21 11:23:51;;;;;;;3.90;2.70;;;;;;;7.86;65.57;99052.77;232347;203;137963;-53
2024/04/21 11:28:57;;;;;;;3.20;2.60;;;;;;;7.82;65.72;99056.98;232470;204;138228;-53
2024/04/21 11:34:01;;;;;;;3.10;2.40;;;;;;;7.79;66.05;99056.65;232620;202;153400;-53
2024/04/21 11:39:04;;;;;;;3.30;2.60;;;;;;;7.73;65.53;99054.13;232714;206;137045;-51
2024/04/21 11:44:17;;;;;;;3.80;2.60;;;;;;;7.72;65.73;99052.73;232796;199;137500;-53
2024/04/21 11:49:20;;;;;;;100.20;69.30;;;;;;;7.77;66.08;99051.95;232841;202;152958;-52
2024/04/21 11:54:23;;;;;;;7.00;5.00;;;;;;;7.86;66.30;99054.16;232655;202;139495;-53
2024/04/21 11:59:26;;;;;;;4.20;3.40;;;;;;;7.86;65.50;99054.02;232664;199;137022;-52
2024/04/21 12:04:29;;;;;;;3.80;3.40;;;;;;;7.75;65.60;99053.33;232618;203;154057;-53
2024/04/21 12:09:32;;;;;;;6.00;2.90;;;;;;;7.72;66.20;99053.12;232681;206;138339;-52
2024/04/21 12:14:35;;;;;;;4.10;3.20;;;;;;;7.75;66.09;99051.19;232710;199;137649;-53
2024/04/21 12:19:38;;;;;;;4.70;3.30;;;;;;;7.80;65.88;99054.48;232705;202;153077;-54
2024/04/21 12:24:41;;;;;;;12.70;11.30;;;;;;;7.84;66.10;99052.67;232809;203;137479;-53
2024/04/21 12:29:45;;;;;;;14.40;10.30;;;;;;;8.02;66.73;99047.69;232707;206;137938;-56
2024/04/21 12:34:48;;;;;;;5.50;3.60;;;;;;;8.18;65.22;99046.86;232712;198;152929;-54
2024/04/21 12:39:51;;;;;;;5.00;3.80;;;;;;;8.18;65.18;99046.68;232700;206;137690;-55
2024/04/21 12:44:55;;;;;;;5.50;4.00;;;;;;;8.15;65.27;99044.39;232689;203;139707;-54
2024/04/21 12:49:58;;;;;;;5.10;4.10;;;;;;;8.12;65.51;99043.64;232706;206;153612;-54
2024/04/21 12:55:02;;;;;;;66.20;55.20;;;;;;;8.11;65.99;99038.91;232650;203;138067;-55
2024/04/21 13:00:07;;;;;;;8.20;6.60;;;;;;;8.19;66.69;99035.89;232437;206;138130;-55
2024/04/21 13:05:10;;;;;;;5.60;4.10;;;;;;;8.23;65.98;99037.58;232607;203;153217;-53
2024/04/21 13:10:13;;;;;;;7.40;4.60;;;;;;;8.22;65.85;99040.82;232614;203;137007;-54
2024/04/21 13:15:16;;;;;;;5.80;3.70;;;;;;;8.15;65.73;99039.27;232686;203;137211;-55
2024/04/21 13:20:19;;;;;;;4.60;3.80;;;;;;;8.04;65.65;99041.55;232480;203;153310;-54
2024/04/21 13:25:22;;;;;;;6.30;4.60;;;;;;;7.97;65.99;99042.15;232542;206;137527;-54
2024/04/21 13:30:26;;;;;;;6.80;5.10;;;;;;;7.91;66.40;99049.15;232475;206;136854;-54
2024/04/21 13:35:29;;;;;;;5.10;3.90;;;;;;;7.87;66.33;99049.52;232293;206;153852;-56
2024/04/21 13:40:32;;;;;;;347.80;257.70;;;;;;;7.86;66.58;99047.67;232355;204;137621;-56
2024/04/21 13:45:35;;;;;;;28.30;21.70;;;;;;;7.94;67.72;99048.09;232423;199;138662;-53
2024/04/21 13:50:39;;;;;;;5.30;3.50;;;;;;;8.03;66.91;99044.66;232411;204;153620;-54
2024/04/21 13:55:41;;;;;;;4.10;3.50;;;;;;;8.10;66.36;99048.52;232344;203;137938;-55
2024/04/21 14:00:45;;;;;;;6.90;4.40;;;;;;;8.12;66.18;99052.16;232550;203;137341;-53
2024/04/21 14:05:48;;;;;;;5.90;3.80;;;;;;;8.09;66.32;99057.25;232350;203;153183;-54
2024/04/21 14:10:51;;;;;;;5.70;4.20;;;;;;;8.04;66.37;99059.41;232300;206;137635;-53
2024/04/21 14:15:54;;;;;;;7.50;4.30;;;;;;;8.04;66.77;99064.20;232371;206;138885;-53
2024/04/21 14:20:58;;;;;;;4.30;3.90;;;;;;;8.02;66.61;99062.52;232334;206;153843;-54
2024/04/21 14:26:02;;;;;;;5.90;4.30;;;;;;;7.98;66.48;99061.67;232308;199;137464;-54
2024/04/21 14:31:06;;;;;;;4.70;4.20;;;;;;;7.93;66.14;99058.95;232555;204;137504;-53
2024/04/21 14:36:09;;;;;;;5.10;4.00;;;;;;;7.87;66.32;99053.23;232308;204;154173;-52
2024/04/21 14:41:14;;;;;;;168.90;130.20;;;;;;;7.85;67.21;99057.21;232417;203;137279;-53
2024/04/21 14:46:17;;;;;;;10.20;7.70;;;;;;;7.90;67.41;99050.79;232405;200;138449;-50
2024/04/21 14:51:20;;;;;;;6.30;4.80;;;;;;;7.91;67.11;99052.16;232382;203;153208;-53
2024/04/21 14:56:23;;;;;;;6.20;4.60;;;;;;;7.89;67.04;99052.08;232421;206;142057;-54
2024/04/21 15:01:26;;;;;;;164.70;129.60;;;;;;;7.91;67.09;99050.75;232597;206;137297;-56
2024/04/21 15:06:29;;;;;;;5.10;4.30;;;;;;;7.99;67.94;99046.79;232468;203;153791;-52
2024/04/21 15:11:35;;;;;;;6.80;4.30;;;;;;;8.02;67.09;99044.52;232492;203;137755;-53
2024/04/21 15:16:38;;;;;;;6.90;4.80;;;;;;;8.04;67.20;99037.16;232391;203;138930;-52
2024/04/21 15:21:44;;;;;;;;;;;;;;;8.03;67.07;99040.06;232403;206;154319;-52
2024/04/21 15:26:47;;;;;;;6.20;5.20;;;;;;;7.99;66.84;99043.60;232474;204;139162;-55
2024/04/21 15:31:50;;;;;;;6.80;4.90;;;;;;;7.94;67.25;99045.63;232510;202;138112;-54
2024/04/21 15:36:53;;;;;;;7.60;5.70;;;;;;;7.93;67.03;99043.59;232549;204;152437;-53
2024/04/21 15:41:55;;;;;;;8.20;5.60;;;;;;;7.89;67.12;99048.19;232435;203;137693;-53
2024/04/21 15:46:58;;;;;;;9.90;6.80;;;;;;;7.86;67.42;99047.27;232478;203;137630;-53
2024/04/21 15:52:02;;;;;;;12.20;7.00;;;;;;;7.86;67.30;99042.33;232323;203;153773;-53
2024/04/21 15:57:05;;;;;;;11.90;6.60;;;;;;;7.84;67.42;99036.23;232478;206;138240;-53
2024/04/21 16:02:08;;;;;;;9.20;6.50;;;;;;;7.84;67.52;99038.38;232467;203;137830;-52
2024/04/21 16:07:13;;;;;;;9.00;7.00;;;;;;;7.83;67.90;99042.50;232487;203;153034;-53
2024/04/21 16:12:16;;;;;;;8.60;6.30;;;;;;;7.81;68.02;99045.55;232275;203;137617;-53
2024/04/21 16:17:19;;;;;;;10.90;6.80;;;;;;;7.79;68.42;99046.58;232464;202;137188;-53
2024/04/21 16:22:22;;;;;;;12.10;6.70;;;;;;;7.82;68.15;99050.11;232325;206;153065;-55
2024/04/21 16:27:25;;;;;;;11.40;7.90;;;;;;;7.90;68.02;99048.84;232386;207;137800;-52
2024/04/21 16:32:29;;;;;;;11.30;7.30;;;;;;;7.95;67.83;99051.08;232369;203;137332;-52
2024/04/21 16:37:32;;;;;;;12.30;7.40;;;;;;;7.99;68.14;99059.89;232625;203;153214;-54
2024/04/21 16:42:36;;;;;;;10.60;7.40;;;;;;;8.06;67.80;99063.41;232315;203;138438;-54
2024/04/21 16:47:44;;;;;;;11.20;8.10;;;;;;;8.03;67.37;99066.73;232356;203;137748;-54
2024/04/21 16:52:48;;;;;;;13.20;7.80;;;;;;;8.01;67.44;99067.35;232377;206;153637;-52
2024/04/21 16:57:55;;;;;;;12.50;7.80;;;;;;;7.97;67.34;99073.02;232410;203;142188;-53
2024/04/21 17:02:58;;;;;;;10.20;7.50;;;;;;;7.93;67.42;99078.90;232400;200;137482;-53
2024/04/21 17:08:31;;;;;;;15.60;11.10;;;;;;;7.93;67.65;99077.30;232415;203;153370;-53
2024/04/21 17:13:35;;;;;;;11.60;7.80;;;;;;;7.91;67.90;99084.48;232498;203;137488;-52
2024/04/21 17:18:39;;;;;;;12.70;7.30;;;;;;;7.90;67.74;99085.06;232489;206;137371;-52
2024/04/21 17:23:42;;;;;;;9.70;7.60;;;;;;;7.90;67.87;99089.98;232403;203;153559;-53
2024/04/21 17:28:46;;;;;;;13.70;8.10;;;;;;;7.88;68.08;99092.94;232343;203;138128;-54
2024/04/21 17:33:49;;;;;;;11.10;7.40;;;;;;;7.91;68.03;99097.56;232390;206;137753;-54
2024/04/21 17:38:52;;;;;;;12.80;7.00;;;;;;;7.99;68.06;99101.75;232374;206;153312;-54
2024/04/21 17:43:58;;;;;;;10.00;6.90;;;;;;;8.06;68.07;99106.52;232402;206;141106;-56
2024/04/21 17:49:01;;;;;;;9.90;7.10;;;;;;;8.10;67.79;99110.36;232436;204;137229;-54
2024/04/21 17:54:04;;;;;;;9.60;7.30;;;;;;;8.13;67.70;99119.05;232321;203;154097;-55
2024/04/21 17:59:10;;;;;;;12.00;7.40;;;;;;;8.14;67.41;99122.16;232259;206;138089;-55
2024/04/21 18:04:13;;;;;;;10.10;7.10;;;;;;;8.14;67.58;99127.46;232180;206;137310;-55
2024/04/21 18:09:17;;;;;;;13.80;8.90;;;;;;;8.11;67.51;99128.01;232428;204;153101;-55
2024/04/21 18:14:20;;;;;;;8.80;6.90;;;;;;;8.08;67.66;99131.34;232406;199;138062;-54
2024/04/21 18:19:23;;;;;;;10.20;6.90;;;;;;;8.08;67.72;99136.98;232581;206;137748;-56
2024/04/21 18:24:26;;;;;;;10.00;7.40;;;;;;;8.07;67.90;99140.54;232439;203;153480;-55
2024/04/21 18:29:29;;;;;;;9.40;7.50;;;;;;;8.06;67.92;99150.14;232422;203;138024;-56
2024/04/21 18:34:31;;;;;;;10.80;7.00;;;;;;;7.97;67.94;99152.39;232478;199;137923;-56
2024/04/21 18:39:34;;;;;;;12.80;7.00;;;;;;;7.97;68.20;99152.36;232403;203;152943;-55
2024/04/21 18:44:37;;;;;;;12.90;8.10;;;;;;;8.05;67.96;99153.21;232400;206;141048;-55
2024/04/21 18:49:42;;;;;;;9.70;7.60;;;;;;;8.04;67.78;99153.44;232460;202;137225;-56
2024/04/21 18:54:45;;;;;;;9.30;7.30;;;;;;;8.03;67.89;99158.08;232530;206;247829;-55
2024/04/21 18:59:47;;;;;;;11.80;8.20;;;;;;;8.02;68.25;99150.86;232427;206;137120;-56
2024/04/21 19:04:50;;;;;;;10.10;7.50;;;;;;;8.04;68.19;99152.88;232440;206;137425;-55
2024/04/21 19:09:55;;;;;;;9.80;7.80;;;;;;;8.03;68.48;99151.87;232396;200;155868;-54
2024/04/21 19:14:58;;;;;;;12.10;8.10;;;;;;;8.00;68.64;99153.83;232431;203;137284;-54
2024/04/21 19:20:03;;;;;;;500.70;402.20;;;;;;;7.94;68.95;99154.64;232395;203;137966;-54
2024/04/21 19:25:06;;;;;;;23.70;16.80;;;;;;;8.08;69.93;99158.86;232599;204;154785;-55
2024/04/21 19:30:10;;;;;;;12.40;8.50;;;;;;;8.12;68.91;99158.01;232438;203;139168;-51
2024/04/21 19:35:13;;;;;;;12.20;7.20;;;;;;;8.03;68.46;99154.55;232447;204;137621;-54
2024/04/21 19:40:16;;;;;;;8.40;6.10;;;;;;;7.98;68.46;99156.22;232473;203;153849;-55
2024/04/21 19:45:18;;;;;;;31.40;21.40;;;;;;;7.97;68.14;99153.96;232401;203;137058;-52
2024/04/21 19:50:21;;;;;;;13.20;9.20;;;;;;;8.19;69.16;99157.46;232360;203;140854;-54
2024/04/21 19:55:24;;;;;;;12.10;6.70;;;;;;;8.29;67.62;99152.88;232422;204;153292;-53
2024/04/21 20:00:27;;;;;;;8.90;6.00;;;;;;;8.23;67.54;99150.00;232459;203;138351;-53
2024/04/21 20:05:38;;;;;;;9.90;6.50;;;;;;;8.17;67.44;99148.90;232337;203;137870;-54
2024/04/21 20:10:41;;;;;;;9.70;6.50;;;;;;;8.11;67.44;99146.19;232361;203;153323;-53
2024/04/21 20:21:17;;;;;;;12.20;7.50;;;;;;;7.98;67.66;99147.39;232464;203;137949;-53
2024/04/21 20:26:21;;;;;;;9.20;6.60;;;;;;;7.91;67.56;99151.63;232326;203;153199;-53
2024/04/21 20:31:24;;;;;;;9.60;6.50;;;;;;;7.86;67.60;99155.92;232499;203;138305;-53
2024/04/21 20:36:28;;;;;;;10.60;6.80;;;;;;;7.84;67.72;99151.95;232437;203;138759;-53
2024/04/21 20:41:32;;;;;;;8.40;6.40;;;;;;;7.82;67.90;99150.42;232341;204;153969;-54
2024/04/21 20:46:35;;;;;;;9.70;6.40;;;;;;;7.81;67.86;99151.01;232330;206;137111;-54
2024/04/21 20:51:38;;;;;;;12.50;6.00;;;;;;;7.76;67.60;99149.88;232518;202;137506;-53
2024/04/21 20:56:41;;;;;;;9.60;6.40;;;;;;;7.78;67.76;99150.27;232425;203;154224;-53
2024/04/21 21:01:44;;;;;;;9.20;6.30;;;;;;;7.87;67.80;99153.02;232416;199;137294;-53
2024/04/21 21:06:47;;;;;;;11.00;7.00;;;;;;;7.92;67.48;99150.16;232506;204;137392;-53
2024/04/21 21:11:50;;;;;;;10.30;6.50;;;;;;;7.94;67.36;99152.36;232359;207;153364;-53
2024/04/21 21:16:53;;;;;;;9.60;6.50;;;;;;;7.94;67.54;99150.38;232436;207;138220;-54
2024/04/21 21:21:56;;;;;;;10.50;6.50;;;;;;;7.96;67.37;99150.29;232502;206;137496;-54
2024/04/21 21:26:59;;;;;;;11.60;7.00;;;;;;;7.92;67.38;99150.33;232395;206;152973;-52
2024/04/21 21:32:03;;;;;;;11.10;7.10;;;;;;;7.89;67.58;99150.10;232351;205;138126;-53
2024/04/21 21:37:06;;;;;;;10.20;6.90;;;;;;;7.86;67.50;99143.92;232590;203;138165;-52
2024/04/21 21:42:08;;;;;;;11.30;7.30;;;;;;;7.84;67.88;99142.59;232375;204;153884;-54
2024/04/21 21:47:13;;;;;;;10.30;6.90;;;;;;;7.81;67.95;99143.61;232397;206;136957;-52
2024/04/21 21:52:16;;;;;;;9.70;7.20;;;;;;;7.80;68.09;99136.95;232477;203;137826;-52
2024/04/21 21:57:19;;;;;;;13.50;7.50;;;;;;;7.79;68.06;99135.39;232471;204;152963;-52
2024/04/21 22:02:22;;;;;;;8.20;5.90;;;;;;;7.82;68.07;99133.84;232470;206;137974;-53
2024/04/21 22:07:25;;;;;;;9.00;6.10;;;;;;;7.81;67.91;99135.69;232261;206;138659;-54
2024/04/21 22:12:28;;;;;;;9.20;7.00;;;;;;;7.84;68.05;99138.68;232495;206;153084;-53
2024/04/21 22:17:31;;;;;;;8.70;6.40;;;;;;;7.91;67.97;99135.21;232408;203;137293;-53
2024/04/21 22:22:34;;;;;;;12.10;6.70;;;;;;;7.92;67.64;99137.94;232462;206;137101;-54
2024/04/21 22:27:37;;;;;;;11.40;6.80;;;;;;;7.89;67.78;99137.08;232456;206;152879;-53
2024/04/21 22:32:41;;;;;;;10.10;6.70;;;;;;;7.84;67.82;99142.42;232477;203;138990;-53
2024/04/21 22:37:44;;;;;;;9.40;6.40;;;;;;;7.81;67.85;99141.83;232490;206;138518;-54
2024/04/21 22:42:47;;;;;;;10.10;6.70;;;;;;;7.79;68.00;99137.36;232525;203;153755;-54
2024/04/21 22:47:50;;;;;;;9.60;6.70;;;;;;;7.78;68.04;99134.94;232470;203;141464;-53
2024/04/21 22:52:53;;;;;;;10.60;6.60;;;;;;;7.73;68.19;99129.71;232523;203;137408;-53
2024/04/21 22:57:56;;;;;;;9.20;6.40;;;;;;;7.69;68.31;99126.73;232455;203;152994;-54
2024/04/21 23:02:59;;;;;;;8.50;5.20;;;;;;;7.67;68.29;99124.02;232580;206;137596;-53
2024/04/21 23:08:03;;;;;;;6.90;4.70;;;;;;;7.61;67.40;99124.30;232565;203;138569;-53
2024/04/21 23:13:07;;;;;;;6.50;4.50;;;;;;;7.56;67.46;99129.29;232613;204;153762;-53
2024/04/21 23:18:10;;;;;;;6.60;4.00;;;;;;;7.52;67.36;99132.83;232400;203;137747;-53
2024/04/21 23:23:13;;;;;;;6.90;4.10;;;;;;;7.47;67.30;99133.96;232574;203;137979;-56
2024/04/21 23:28:16;;;;;;;6.20;4.20;;;;;;;7.40;66.84;99137.10;232266;204;152968;-52
2024/04/21 23:33:20;;;;;;;7.40;4.80;;;;;;;7.35;66.84;99137.37;232502;203;138042;-52
2024/04/21 23:38:23;;;;;;;6.10;4.00;;;;;;;7.23;66.76;99135.61;232405;203;138602;-52
2024/04/21 23:43:26;;;;;;;5.50;3.70;;;;;;;7.22;66.68;99142.02;232498;203;153774;-51
2024/04/21 23:48:29;;;;;;;9.40;4.50;;;;;;;7.25;66.74;99142.77;232380;205;137803;-51